You are not logged in, Click here to log in
ICAO: KBOS Country: 美國麻薩諸塞州波士頓
Latitude: 42.3643 Longitude: -71.0052
Total Arrivals: 5 Total Departures: 3
Latest Arrival: FS98 (KDTW-KBOS)ALAN. LIU Latest Departure: FS12 (KBOS-KMSP)ALAN. LIU
Scenery:
METAR : KBOS 210654Z 21003KT 10SM CLR 22/16 A3003 RMK AO2 SLP168 T02170161

愛德華·勞倫斯·洛根將軍國際機場